Time;durP1;ratioP1;P1;durP2;ratioP2;P2;SDS_P1;SDS_P2;PMS_P1;PMS_P2;Temp;Humidity;BMP_temperature;BMP_pressure;BME280_temperature;BME280_humidity;BME280_pressure;Samples;Min_cycle;Max_cycle;Signal;HPM_P1;HPM_P2
2023/07/31 00:01:50;;;;;;;;;;;;;;;18.59;68.49;100684.00;4205481;28;19928;-72
2023/07/31 00:03:54;;;;;;;;;;;;;;;18.56;68.58;100682.56;4204658;28;20038;-71
2023/07/31 00:05:56;;;;;;;;;;;;;;;18.53;68.71;100678.41;4186726;28;20413;-72
2023/07/31 00:07:59;;;;;;;;;;;;;;;18.51;68.83;100677.81;4205770;28;20007;-73
2023/07/31 00:10:04;;;;;;;;;;;;;;;18.49;68.99;100670.88;4205155;28;20011;-71
2023/07/31 00:12:09;;;;;;;;;;;;;;;18.46;69.28;100677.63;4204916;28;19928;-72
2023/07/31 00:14:11;;;;;;;;;;;;;;;18.41;69.54;100680.25;4204438;28;20020;-70
2023/07/31 00:16:13;;;;;;;;;;;;;;;18.40;69.90;100678.59;4205014;28;20047;-71
2023/07/31 00:18:15;;;;;;;;;;;;;;;18.39;70.01;100676.91;4204183;28;20007;-72
2023/07/31 00:20:17;;;;;;;;;;;;;;;18.36;70.23;100678.19;4205112;28;19934;-71
2023/07/31 00:22:19;;;;;;;;;;;;;;;18.32;70.30;100671.53;4203860;28;20106;-71
2023/07/31 00:24:20;;;;;;;;;;;;;;;18.30;70.55;100672.81;4205144;28;20018;-71
2023/07/31 00:26:25;;;;;;;;;;;;;;;18.28;70.66;100669.50;4187253;28;20015;-72
2023/07/31 00:28:28;;;;;;;;;;;;;;;18.27;70.58;100670.53;4186796;28;20023;-71
2023/07/31 00:30:31;;;;;;;;;;;;;;;18.27;70.75;100670.53;4186741;28;20052;-71
2023/07/31 00:32:34;;;;;;;;;;;;;;;18.25;70.90;100657.09;4203622;28;19956;-72
2023/07/31 00:34:36;;;;;;;;;;;;;;;18.25;70.91;100651.63;4202158;28;20011;-72
2023/07/31 00:36:45;;;;;;;;;;;;;;;18.24;71.16;100643.66;4205130;28;20466;-71
2023/07/31 00:38:54;;;;;;;;;;;;;;;18.24;70.85;100640.94;4170319;28;20015;-71
2023/07/31 00:40:56;;;;;;;;;;;;;;;18.23;71.32;100636.53;4202877;28;20313;-71
2023/07/31 00:43:00;;;;;;;;;;;;;;;18.23;71.13;100633.78;4184968;28;20031;-71
2023/07/31 00:45:04;;;;;;;;;;;;;;;18.21;71.37;100630.47;4204353;28;20027;-71
2023/07/31 00:47:06;;;;;;;;;;;;;;;18.18;71.44;100616.19;4170452;28;20023;-70
2023/07/31 00:49:08;;;;;;;;;;;;;;;18.16;71.16;100618.31;4203939;28;20617;-71
2023/07/31 00:51:10;;;;;;;;;;;;;;;18.16;71.70;100612.84;4204079;28;20019;-69
2023/07/31 00:53:13;;;;;;;;;;;;;;;18.17;71.53;100616.44;4184976;28;20766;-70
2023/07/31 00:55:15;;;;;;;;;;;;;;;18.13;71.83;100624.22;4185916;28;20028;-71
2023/07/31 00:57:17;;;;;;;;;;;;;;;18.13;71.71;100620.69;4204202;28;20440;-71
2023/07/31 00:59:22;;;;;;;;;;;;;;;18.09;71.70;100631.25;4186394;28;20450;-71
2023/07/31 01:01:24;;;;;;;;;;;;;;;18.08;71.97;100628.75;4203778;28;19934;-71
2023/07/31 01:03:26;;;;;;;;;;;;;;;18.06;71.84;100628.13;4204586;28;20023;-71
2023/07/31 01:05:31;;;;;;;;;;;;;;;18.04;72.34;100638.44;4202638;28;20022;-71
2023/07/31 01:07:35;;;;;;;;;;;;;;;17.98;72.66;100630.09;4203626;28;20038;-72
2023/07/31 01:09:38;;;;;;;;;;;;;;;17.95;72.85;100627.84;4187365;28;20023;-70
2023/07/31 01:11:44;;;;;;;;;;;;;;;17.93;72.72;100629.97;4186557;28;20564;-72
2023/07/31 01:13:46;;;;;;;;;;;;;;;17.92;73.09;100622.81;4169851;28;20019;-71
2023/07/31 01:15:49;;;;;;;;;;;;;;;17.93;73.02;100613.56;4186966;28;20027;-72
2023/07/31 01:17:51;;;;;;;;;;;;;;;17.94;73.07;100612.50;4187134;28;20011;-71
2023/07/31 01:19:56;;;;;;;;;;;;;;;17.95;73.02;100602.41;4187256;28;20028;-72
2023/07/31 01:22:12;;;;;;;;;;;;;;;17.95;73.27;100599.69;4186700;28;19924;-72
2023/07/31 01:24:21;;;;;;;;;;;;;;;17.96;73.18;100595.88;4186965;28;20019;-71
2023/07/31 01:26:26;;;;;;;;;;;;;;;17.96;73.08;100604.06;4186368;28;20035;-71
2023/07/31 01:28:29;;;;;;;;;;;;;;;17.95;73.10;100602.41;4187441;28;20015;-72
2023/07/31 01:30:33;;;;;;;;;;;;;;;17.94;73.28;100604.28;4187020;28;20023;-71
2023/07/31 01:32:35;;;;;;;;;;;;;;;17.96;73.29;100598.59;4167749;28;20375;-71
2023/07/31 01:34:43;;;;;;;;;;;;;;;17.94;73.40;100604.28;4186960;28;20291;-71
2023/07/31 01:36:44;;;;;;;;;;;;;;;17.94;73.34;100604.28;4186060;28;20020;-70
2023/07/31 01:38:46;;;;;;;;;;;;;;;17.97;73.15;100597.56;4187518;28;20027;-72
2023/07/31 01:40:50;;;;;;;;;;;;;;;17.99;73.08;100600.88;4187346;28;20011;-71
2023/07/31 01:43:01;;;;;;;;;;;;;;;18.01;73.03;100594.13;4187432;28;19924;-71
2023/07/31 01:45:05;;;;;;;;;;;;;;;18.05;73.04;100597.22;4185156;28;20015;-71
2023/07/31 01:47:07;;;;;;;;;;;;;;;18.09;73.20;100597.63;4186666;28;20023;-70
2023/07/31 01:49:09;;;;;;;;;;;;;;;18.11;72.93;100596.31;4185970;28;20160;-71
2023/07/31 01:51:12;;;;;;;;;;;;;;;18.13;72.99;100596.91;4186099;28;20019;-70
2023/07/31 01:53:13;;;;;;;;;;;;;;;18.14;72.89;100598.56;4187185;28;20027;-71
2023/07/31 01:55:15;;;;;;;;;;;;;;;18.13;73.07;100588.69;4186884;28;20019;-70
2023/07/31 01:57:22;;;;;;;;;;;;;;;18.13;73.66;100580.50;4166357;28;20012;-70
2023/07/31 01:59:40;;;;;;;;;;;;;;;18.12;73.29;100578.84;4187105;28;20056;-70
2023/07/31 02:01:42;;;;;;;;;;;;;;;18.13;73.57;100580.50;4168536;28;20023;-72
2023/07/31 02:03:44;;;;;;;;;;;;;;;18.11;73.45;100579.91;4184974;28;20802;-71
2023/07/31 02:05:49;;;;;;;;;;;;;;;18.11;73.33;100581.81;4187708;28;19931;-72
2023/07/31 02:07:51;;;;;;;;;;;;;;;18.11;73.61;100574.44;4185736;28;20016;-69
2023/07/31 02:09:53;;;;;;;;;;;;;;;18.09;73.73;100575.75;4184782;28;20032;-72
2023/07/31 02:11:58;;;;;;;;;;;;;;;18.07;73.71;100586.91;4185911;28;19925;-71
2023/07/31 02:14:00;;;;;;;;;;;;;;;18.07;73.98;100580.59;4203400;28;20015;-71
2023/07/31 02:16:05;;;;;;;;;;;;;;;18.06;73.67;100573.50;4202980;28;20015;-70
2023/07/31 02:18:08;;;;;;;;;;;;;;;18.06;73.79;100576.22;4203961;28;20019;-70
2023/07/31 02:20:10;;;;;;;;;;;;;;;18.06;73.69;100568.84;4203420;28;20003;-71
2023/07/31 02:22:12;;;;;;;;;;;;;;;18.07;73.77;100570.53;4185276;28;20048;-71
2023/07/31 02:24:14;;;;;;;;;;;;;;;18.08;73.95;100568.63;4203471;28;20477;-71
2023/07/31 02:26:16;;;;;;;;;;;;;;;18.07;74.09;100565.06;4203141;28;20012;-71
2023/07/31 02:28:18;;;;;;;;;;;;;;;18.07;73.81;100566.94;4204534;28;20023;-71
2023/07/31 02:30:20;;;;;;;;;;;;;;;18.08;74.12;100563.16;4202993;28;20027;-71
2023/07/31 02:32:23;;;;;;;;;;;;;;;18.08;74.13;100554.94;4201939;28;20024;-71
2023/07/31 02:34:25;;;;;;;;;;;;;;;18.08;74.21;100555.78;4202975;28;20023;-71
2023/07/31 02:36:27;;;;;;;;;;;;;;;18.09;73.98;100559.38;4203329;28;20047;-71
2023/07/31 02:38:31;;;;;;;;;;;;;;;18.08;73.95;100557.69;4183105;28;20478;-70
2023/07/31 02:40:33;;;;;;;;;;;;;;;18.07;74.08;100547.81;4202590;28;20022;-70
2023/07/31 02:42:35;;;;;;;;;;;;;;;18.06;74.08;100557.91;4184798;28;20044;-70
2023/07/31 02:44:37;;;;;;;;;;;;;;;18.06;74.25;100552.44;4187471;28;20341;-70
2023/07/31 02:46:39;;;;;;;;;;;;;;;18.05;74.01;100552.69;4206418;28;20023;-70
2023/07/31 02:48:43;;;;;;;;;;;;;;;18.04;74.20;100548.28;4187239;28;20020;-71
2023/07/31 02:50:45;;;;;;;;;;;;;;;18.03;74.20;100539.25;4171943;28;20027;-72
2023/07/31 02:52:47;;;;;;;;;;;;;;;18.02;74.20;100551.22;4171832;28;20501;-71
2023/07/31 02:54:48;;;;;;;;;;;;;;;18.02;74.58;100553.97;4171801;28;20017;-72
2023/07/31 02:56:50;;;;;;;;;;;;;;;17.99;74.81;100557.16;4204738;28;20026;-71
2023/07/31 02:58:53;;;;;;;;;;;;;;;17.94;74.95;100549.66;4203959;28;20022;-72
2023/07/31 03:00:55;;;;;;;;;;;;;;;17.93;74.98;100547.16;4204672;28;20457;-71
2023/07/31 03:02:57;;;;;;;;;;;;;;;17.90;75.47;100548.47;4187403;28;20027;-71
2023/07/31 03:05:00;;;;;;;;;;;;;;;17.86;75.97;100549.94;4205799;28;20367;-71
2023/07/31 03:07:03;;;;;;;;;;;;;;;17.85;75.68;100551.00;4205738;28;20026;-71
2023/07/31 03:09:03;;;;;;;;;;;;;;;17.83;76.06;100551.22;4206546;28;20015;-71
2023/07/31 03:11:05;;;;;;;;;;;;;;;17.80;76.20;100548.13;4205921;28;20344;-71
2023/07/31 03:13:07;;;;;;;;;;;;;;;17.77;76.25;100549.44;4187279;28;20082;-71
2023/07/31 03:15:10;;;;;;;;;;;;;;;17.76;76.39;100544.22;4205885;28;20022;-71
2023/07/31 03:17:12;;;;;;;;;;;;;;;17.75;76.35;100554.28;4205608;28;20557;-71
2023/07/31 03:19:14;;;;;;;;;;;;;;;17.75;76.56;100548.00;4186890;28;20019;-70
2023/07/31 03:21:18;;;;;;;;;;;;;;;17.75;76.53;100545.25;4186981;28;21044;-72
2023/07/31 03:23:19;;;;;;;;;;;;;;;17.74;76.59;100538.13;4205733;28;20027;-71
2023/07/31 03:25:21;;;;;;;;;;;;;;;17.73;76.77;100544.66;4205859;28;20485;-71
2023/07/31 03:27:23;;;;;;;;;;;;;;;17.72;77.25;100534.78;4188221;28;20015;-71
2023/07/31 03:29:26;;;;;;;;;;;;;;;17.70;77.20;100526.00;4205275;28;20011;-71
2023/07/31 03:31:28;;;;;;;;;;;;;;;17.69;77.59;100529.78;4204920;28;20027;-71
2023/07/31 03:33:30;;;;;;;;;;;;;;;17.67;77.19;100538.22;4182452;28;20385;-71
2023/07/31 03:35:32;;;;;;;;;;;;;;;17.67;77.10;100532.75;4187604;28;20024;-71
2023/07/31 03:37:35;;;;;;;;;;;;;;;17.67;77.60;100534.66;4187510;28;20024;-71
2023/07/31 03:39:38;;;;;;;;;;;;;;;17.63;77.82;100529.66;4203258;28;20014;-71
2023/07/31 03:41:40;;;;;;;;;;;;;;;17.61;77.84;100526.28;4205081;28;20019;-71
2023/07/31 03:43:41;;;;;;;;;;;;;;;17.58;78.16;100528.66;4204981;28;20443;-72
2023/07/31 03:45:46;;;;;;;;;;;;;;;17.59;78.00;100530.34;4205761;28;20499;-71
2023/07/31 03:47:48;;;;;;;;;;;;;;;17.57;78.50;100525.09;4204917;28;20024;-71
2023/07/31 03:49:50;;;;;;;;;;;;;;;17.56;78.46;100530.78;4204563;28;20087;-70
2023/07/31 03:51:52;;;;;;;;;;;;;;;17.54;78.62;100528.28;4169469;28;20059;-71
2023/07/31 03:53:55;;;;;;;;;;;;;;;17.55;78.53;100526.38;4205668;28;20024;-71
2023/07/31 03:55:56;;;;;;;;;;;;;;;17.54;78.57;100525.56;4203398;28;20019;-72
2023/07/31 03:57:58;;;;;;;;;;;;;;;17.52;78.89;100519.47;4186923;28;20390;-71
2023/07/31 04:00:00;;;;;;;;;;;;;;;17.52;79.01;100521.38;4204304;28;20015;-71
2023/07/31 04:02:02;;;;;;;;;;;;;;;17.51;78.72;100517.81;4204893;28;20003;-71
2023/07/31 04:04:05;;;;;;;;;;;;;;;17.50;78.99;100513.41;4203379;28;20019;-71
2023/07/31 04:06:07;;;;;;;;;;;;;;;17.48;78.85;100518.28;4184534;28;20003;-71
2023/07/31 04:08:09;;;;;;;;;;;;;;;17.46;79.37;100517.66;4203764;28;20027;-70
2023/07/31 04:10:13;;;;;;;;;;;;;;;17.46;79.11;100517.66;4204033;28;20019;-71
2023/07/31 04:12:15;;;;;;;;;;;;;;;17.45;79.02;100518.72;4204953;28;20007;-70
2023/07/31 04:14:16;;;;;;;;;;;;;;;17.44;79.00;100508.88;4204966;28;20015;-71
2023/07/31 04:16:18;;;;;;;;;;;;;;;17.46;79.06;100509.47;4204259;28;20031;-71
2023/07/31 04:18:20;;;;;;;;;;;;;;;17.46;78.96;100504.84;4204117;28;20007;-71
2023/07/31 04:20:22;;;;;;;;;;;;;;;17.48;78.65;100513.63;4204487;28;20358;-71
2023/07/31 04:22:24;;;;;;;;;;;;;;;17.48;79.25;100512.81;4204744;28;20015;-71
2023/07/31 04:24:26;;;;;;;;;;;;;;;17.46;79.46;100510.31;4204650;28;20002;-71
2023/07/31 04:26:30;;;;;;;;;;;;;;;17.45;79.55;100505.09;4205477;28;20031;-71
2023/07/31 04:28:32;;;;;;;;;;;;;;;17.44;79.55;100495.22;4204841;28;20368;-71
2023/07/31 04:30:34;;;;;;;;;;;;;;;17.46;79.64;100504.00;4204395;28;20015;-71
2023/07/31 04:32:36;;;;;;;;;;;;;;;17.45;79.50;100495.00;4204699;28;20043;-71
2023/07/31 04:34:38;;;;;;;;;;;;;;;17.46;79.95;100498.53;4205180;28;20478;-71
2023/07/31 04:36:40;;;;;;;;;;;;;;;17.44;80.38;100495.22;4204684;28;20021;-71
2023/07/31 04:38:42;;;;;;;;;;;;;;;17.44;80.30;100500.69;4204230;28;20474;-72
2023/07/31 04:40:43;;;;;;;;;;;;;;;17.44;80.24;100497.94;4169495;28;20027;-71
2023/07/31 04:42:46;;;;;;;;;;;;;;;17.44;80.14;100493.34;4203954;28;20023;-70
2023/07/31 04:44:48;;;;;;;;;;;;;;;17.45;80.49;100491.44;4204357;28;20015;-71
2023/07/31 04:46:50;;;;;;;;;;;;;;;17.45;80.54;100491.44;4204765;28;19928;-71
2023/07/31 04:48:52;;;;;;;;;;;;;;;17.44;80.33;100484.28;4204233;28;20366;-71
2023/07/31 04:50:54;;;;;;;;;;;;;;;17.43;80.71;100480.75;4204095;28;20019;-71
2023/07/31 04:52:56;;;;;;;;;;;;;;;17.43;80.98;100471.72;4204029;28;20019;-71
2023/07/31 04:55:01;;;;;;;;;;;;;;;17.44;80.53;100484.28;4203784;28;20011;-71
2023/07/31 04:57:03;;;;;;;;;;;;;;;17.44;80.61;100481.56;4203662;28;20011;-70
2023/07/31 04:59:06;;;;;;;;;;;;;;;17.45;81.19;100481.34;4204323;28;20447;-71
2023/07/31 05:01:13;;;;;;;;;;;;;;;17.45;80.74;100478.59;4204190;28;20039;-71
2023/07/31 05:03:15;;;;;;;;;;;;;;;17.45;80.65;100489.53;4203730;28;20356;-70
2023/07/31 05:05:17;;;;;;;;;;;;;;;17.46;80.23;100480.28;4204326;28;20019;-72
2023/07/31 05:07:19;;;;;;;;;;;;;;;17.48;80.79;100482.78;4203389;28;20570;-71
2023/07/31 05:09:21;;;;;;;;;;;;;;;17.48;80.86;100485.53;4204544;28;20014;-71
2023/07/31 05:11:23;;;;;;;;;;;;;;;17.48;80.72;100482.78;4204253;28;20398;-71
2023/07/31 05:13:25;;;;;;;;;;;;;;;17.49;80.58;100478.97;4203888;28;20551;-71
2023/07/31 05:15:28;;;;;;;;;;;;;;;17.48;80.44;100475.41;4203080;28;20027;-71
2023/07/31 05:17:30;;;;;;;;;;;;;;;17.50;80.71;100482.56;4201836;28;20458;-71
2023/07/31 05:19:31;;;;;;;;;;;;;;;17.52;80.57;100483.16;4204002;28;20011;-71
2023/07/31 05:21:33;;;;;;;;;;;;;;;17.52;80.50;100489.44;4203845;28;20335;-71
2023/07/31 05:23:35;;;;;;;;;;;;;;;17.51;81.08;100487.78;4203425;28;20027;-72
2023/07/31 05:25:37;;;;;;;;;;;;;;;17.51;81.56;100486.94;4203757;28;20023;-72
2023/07/31 05:27:39;;;;;;;;;;;;;;;17.49;81.24;100478.97;4184494;28;20023;-71
2023/07/31 05:29:41;;;;;;;;;;;;;;;17.50;81.69;100474.38;4204397;28;20015;-71
2023/07/31 05:31:44;;;;;;;;;;;;;;;17.50;81.86;100483.38;4201586;28;20019;-71
2023/07/31 05:33:50;;;;;;;;;;;;;;;17.45;82.33;100481.34;4201593;28;20440;-71
2023/07/31 05:35:52;;;;;;;;;;;;;;;17.43;82.54;100474.47;4183454;28;20024;-71
2023/07/31 05:37:54;;;;;;;;;;;;;;;17.42;82.32;100476.34;4203230;28;20040;-71
2023/07/31 05:39:56;;;;;;;;;;;;;;;17.42;82.14;100476.34;4203961;28;20433;-71
2023/07/31 05:41:58;;;;;;;;;;;;;;;17.40;82.36;100481.19;4201941;28;20027;-71
2023/07/31 05:44:00;;;;;;;;;;;;;;;17.38;82.81;100469.69;4203534;28;20011;-71
2023/07/31 05:46:01;;;;;;;;;;;;;;;17.39;82.25;100471.34;4204456;28;20023;-70
2023/07/31 05:48:05;;;;;;;;;;;;;;;17.39;82.58;100475.97;4202971;28;19966;-71
2023/07/31 05:50:07;;;;;;;;;;;;;;;17.38;83.00;100469.69;4185240;28;20042;-71
2023/07/31 05:52:15;;;;;;;;;;;;;;;17.39;82.51;100470.50;4202960;28;20019;-71
2023/07/31 05:54:17;;;;;;;;;;;;;;;17.39;82.69;100465.03;4203929;28;20351;-71
2023/07/31 05:56:19;;;;;;;;;;;;;;;17.39;82.86;100471.34;4202821;28;20023;-70
2023/07/31 05:58:21;;;;;;;;;;;;;;;17.41;83.37;100473.84;4202768;28;20450;-70
2023/07/31 06:00:27;;;;;;;;;;;;;;;17.39;83.06;100465.03;4202284;28;20019;-70
2023/07/31 06:02:33;;;;;;;;;;;;;;;17.40;82.85;100470.28;4203297;28;20628;-70
2023/07/31 06:04:39;;;;;;;;;;;;;;;17.37;83.20;100469.91;4202980;28;20356;-70
2023/07/31 06:06:39;;;;;;;;;;;;;;;17.34;83.70;100471.19;4203144;28;20426;-69
2023/07/31 06:08:45;;;;;;;;;;;;;;;17.33;83.59;100471.41;4185005;28;19967;-70
2023/07/31 06:10:47;;;;;;;;;;;;;;;17.34;83.86;100479.38;4203564;28;20016;-70
2023/07/31 06:12:49;;;;;;;;;;;;;;;17.33;84.02;100466.78;4202775;28;20498;-69
2023/07/31 06:14:51;;;;;;;;;;;;;;;17.33;84.31;100465.97;4203576;28;20027;-70
2023/07/31 06:16:52;;;;;;;;;;;;;;;17.32;84.33;100467.00;4203930;28;20014;-70
2023/07/31 06:18:54;;;;;;;;;;;;;;;17.29;84.35;100466.41;4202863;28;20031;-70
2023/07/31 06:20:57;;;;;;;;;;;;;;;17.28;84.86;100464.75;4203313;28;20011;-69
2023/07/31 06:23:08;;;;;;;;;;;;;;;17.24;85.26;100469.00;4203430;28;20031;-70
2023/07/31 06:25:13;;;;;;;;;;;;;;;17.23;85.44;100464.59;4202826;28;20027;-70
2023/07/31 06:27:15;;;;;;;;;;;;;;;17.21;85.36;100466.72;4203650;28;20018;-70
2023/07/31 06:29:17;;;;;;;;;;;;;;;17.20;86.02;100459.59;4186252;28;20319;-70
2023/07/31 06:31:22;;;;;;;;;;;;;;;17.20;85.90;100475.97;4204055;28;20019;-71
2023/07/31 06:33:24;;;;;;;;;;;;;;;17.19;86.06;100459.81;4203258;28;20061;-70
2023/07/31 06:35:26;;;;;;;;;;;;;;;17.19;86.44;100471.56;4202927;28;20462;-70
2023/07/31 06:37:30;;;;;;;;;;;;;;;17.21;86.68;100465.88;4203716;28;20019;-71
2023/07/31 06:39:32;;;;;;;;;;;;;;;17.19;86.67;100466.09;4203057;28;19924;-70
2023/07/31 06:41:34;;;;;;;;;;;;;;;17.18;86.67;100461.72;4202964;28;20022;-70
2023/07/31 06:43:40;;;;;;;;;;;;;;;17.20;86.53;100466.97;4184498;28;20094;-70
2023/07/31 06:45:43;;;;;;;;;;;;;;;17.19;86.46;100465.28;4203603;28;20010;-71
2023/07/31 06:47:46;;;;;;;;;;;;;;;17.18;86.95;100460.88;4203586;28;20019;-70
2023/07/31 06:49:48;;;;;;;;;;;;;;;17.18;86.96;100463.59;4202969;28;19932;-70
2023/07/31 06:51:50;;;;;;;;;;;;;;;17.18;86.97;100452.69;4183499;28;19974;-70
2023/07/31 06:53:54;;;;;;;;;;;;;;;17.17;87.04;100457.31;4201970;28;20027;-71
2023/07/31 06:55:56;;;;;;;;;;;;;;;17.19;86.68;100454.38;4202987;28;20386;-71
2023/07/31 06:57:58;;;;;;;;;;;;;;;17.20;86.50;100458.78;4201623;28;20601;-71
2023/07/31 07:00:00;;;;;;;;;;;;;;;17.20;86.31;100456.03;4202424;28;20019;-71
2023/07/31 07:02:09;;;;;;;;;;;;;;;17.21;86.55;100455.81;4202202;28;20015;-71
2023/07/31 07:04:11;;;;;;;;;;;;;;;17.23;86.46;100452.84;4202720;28;20349;-71
2023/07/31 07:06:13;;;;;;;;;;;;;;;17.23;86.36;100456.41;4201684;28;20012;-71
2023/07/31 07:08:18;;;;;;;;;;;;;;;17.26;86.36;100455.13;4202563;28;20022;-71
2023/07/31 07:10:22;;;;;;;;;;;;;;;17.28;86.06;100456.56;4203299;28;20478;-71
2023/07/31 07:12:23;;;;;;;;;;;;;;;17.27;86.71;100454.03;4182632;28;20023;-72
2023/07/31 07:14:33;;;;;;;;;;;;;;;17.25;86.65;100464.38;4201978;28;19946;-71
2023/07/31 07:16:40;;;;;;;;;;;;;;;17.23;87.14;100455.59;4202831;28;20027;-71
2023/07/31 07:18:49;;;;;;;;;;;;;;;17.23;87.14;100461.03;4202784;28;20457;-73
2023/07/31 07:20:51;;;;;;;;;;;;;;;17.22;87.39;100459.38;4202511;28;20024;-72
2023/07/31 07:22:53;;;;;;;;;;;;;;;17.20;87.63;100462.31;4202226;28;20012;-70
2023/07/31 07:24:54;;;;;;;;;;;;;;;17.20;87.73;100462.31;4201813;28;20062;-69
2023/07/31 07:26:58;;;;;;;;;;;;;;;17.21;86.75;100469.47;4183914;28;20028;-71
2023/07/31 07:29:01;;;;;;;;;;;;;;;17.20;87.56;100473.25;4203109;28;20027;-70
2023/07/31 07:31:03;;;;;;;;;;;;;;;17.21;87.53;100460.41;4203191;28;19936;-68
2023/07/31 07:33:05;;;;;;;;;;;;;;;17.23;87.10;100463.78;4199683;28;20019;-71
2023/07/31 07:35:12;;;;;;;;;;;;;;;17.24;87.14;100459.97;4187967;28;19929;-71
2023/07/31 07:37:15;;;;;;;;;;;;;;;17.26;87.00;100452.41;4205551;28;20011;-70
2023/07/31 07:39:16;;;;;;;;;;;;;;;17.28;86.94;100462.00;4204650;28;20015;-73
2023/07/31 07:41:18;;;;;;;;;;;;;;;17.28;87.53;100453.81;4204030;28;20015;-71
2023/07/31 07:43:22;;;;;;;;;;;;;;;17.27;87.80;100448.59;4205964;28;20015;-71
2023/07/31 07:45:24;;;;;;;;;;;;;;;17.29;87.56;100446.50;4205380;28;20022;-72
2023/07/31 07:47:31;;;;;;;;;;;;;;;17.30;88.10;100442.69;4204777;28;20024;-73
2023/07/31 07:49:33;;;;;;;;;;;;;;;17.33;87.56;100441.41;4205270;28;20022;-75
2023/07/31 07:51:35;;;;;;;;;;;;;;;17.35;87.32;100439.25;4204828;28;20374;-73
2023/07/31 07:53:37;;;;;;;;;;;;;;;17.35;87.60;100436.53;4203345;28;20016;-73
2023/07/31 07:55:39;;;;;;;;;;;;;;;17.37;87.70;100431.69;4204365;28;20649;-72
2023/07/31 08:00:10;;;;;;;;;;;;;;;17.39;87.47;100435.84;4161284;28;19956;-73
2023/07/31 08:02:18;;;;;;;;;;;;;;;17.41;87.66;100435.63;4202090;28;20015;-74
2023/07/31 08:04:30;;;;;;;;;;;;;;;17.41;87.97;100431.00;4202350;28;19931;-73
2023/07/31 08:06:32;;;;;;;;;;;;;;;17.44;87.82;100432.44;4202061;28;20031;-71
2023/07/31 08:08:36;;;;;;;;;;;;;;;17.45;88.29;100436.84;4203751;28;20023;-72
2023/07/31 08:10:38;;;;;;;;;;;;;;;17.45;88.49;100436.84;4203978;28;20018;-73
2023/07/31 08:12:41;;;;;;;;;;;;;;;17.46;88.63;100431.16;4203736;28;19963;-70
2023/07/31 08:14:43;;;;;;;;;;;;;;;17.47;88.80;100437.44;4203399;28;20026;-71
2023/07/31 08:16:50;;;;;;;;;;;;;;;17.46;89.03;100444.78;4202572;28;20018;-72
2023/07/31 08:18:52;;;;;;;;;;;;;;;17.43;89.73;100428.06;4202958;28;20274;-73
2023/07/31 08:20:54;;;;;;;;;;;;;;;17.43;89.66;100431.59;4202554;28;20023;-73
2023/07/31 08:22:56;;;;;;;;;;;;;;;17.43;89.43;100434.34;4203025;28;20016;-73
2023/07/31 08:25:01;;;;;;;;;;;;;;;17.42;89.85;100424.47;4203206;28;20023;-72
2023/07/31 08:27:03;;;;;;;;;;;;;;;17.42;90.49;100424.47;4203114;28;20489;-71
2023/07/31 08:29:04;;;;;;;;;;;;;;;17.43;90.39;100423.41;4187170;28;20012;-72
2023/07/31 08:31:06;;;;;;;;;;;;;;;17.42;90.45;100419.00;4203559;28;20430;-72
2023/07/31 08:33:10;;;;;;;;;;;;;;;17.42;91.13;100416.28;4203961;28;20367;-72
2023/07/31 08:35:12;;;;;;;;;;;;;;;17.45;91.56;100415.00;4203911;28;20378;-71
2023/07/31 08:37:16;;;;;;;;;;;;;;;17.46;91.00;100419.38;4204518;28;20433;-70
2023/07/31 08:39:18;;;;;;;;;;;;;;;17.46;91.33;100427.56;4169202;28;20369;-70
2023/07/31 08:41:23;;;;;;;;;;;;;;;17.46;91.31;100413.91;4202578;28;20376;-70
2023/07/31 08:43:25;;;;;;;;;;;;;;;17.46;91.87;100417.50;4186139;28;20388;-70
2023/07/31 08:45:30;;;;;;;;;;;;;;;17.47;91.60;100423.78;4201669;28;20019;-72
2023/07/31 08:47:35;;;;;;;;;;;;;;;17.49;91.05;100424.38;4203080;28;20022;-71
2023/07/31 08:49:38;;;;;;;;;;;;;;;17.52;91.20;100417.63;4203709;28;20011;-71
2023/07/31 08:51:40;;;;;;;;;;;;;;;17.52;91.44;100421.19;4203737;28;20015;-72
2023/07/31 08:53:42;;;;;;;;;;;;;;;17.52;91.87;100423.91;4203657;28;19933;-73
2023/07/31 08:55:51;;;;;;;;;;;;;;;17.51;92.25;100414.06;4204356;28;20011;-69
2023/07/31 08:57:53;;;;;;;;;;;;;;;17.55;92.18;100419.91;4203501;28;20031;-69
2023/07/31 08:59:56;;;;;;;;;;;;;;;17.56;91.93;100414.19;4203574;28;20375;-70
2023/07/31 09:01:59;;;;;;;;;;;;;;;17.56;92.09;100410.66;4201682;28;20347;-70
2023/07/31 09:04:00;;;;;;;;;;;;;;;17.57;92.36;100417.75;4168148;28;20013;-71
2023/07/31 09:06:06;;;;;;;;;;;;;;;17.57;92.42;100421.34;4203143;28;20031;-70
2023/07/31 09:08:10;;;;;;;;;;;;;;;17.58;91.97;100425.72;4203078;28;20023;-70
2023/07/31 09:10:12;;;;;;;;;;;;;;;17.57;92.24;100418.59;4203190;28;20016;-71
2023/07/31 09:12:17;;;;;;;;;;;;;;;17.60;91.98;100418.16;4185685;28;20011;-72
2023/07/31 09:14:19;;;;;;;;;;;;;;;17.63;91.33;100423.16;4201706;28;20406;-71
2023/07/31 09:16:27;;;;;;;;;;;;;;;17.65;91.57;100412.81;4203118;28;20011;-71
2023/07/31 09:18:29;;;;;;;;;;;;;;;17.68;91.53;100430.66;4202745;28;20004;-71
2023/07/31 09:20:34;;;;;;;;;;;;;;;17.71;90.57;100434.78;4184582;28;20633;-72
2023/07/31 09:22:39;;;;;;;;;;;;;;;17.70;90.09;100424.94;4202009;28;20023;-71
2023/07/31 09:24:48;;;;;;;;;;;;;;;17.72;89.81;100417.34;4200874;28;20011;-71
2023/07/31 09:26:50;;;;;;;;;;;;;;;17.76;89.33;100429.50;4200029;28;20065;-71
2023/07/31 09:28:52;;;;;;;;;;;;;;;17.76;88.97;100429.50;4185345;28;19925;-70
2023/07/31 09:30:54;;;;;;;;;;;;;;;17.76;88.47;100432.22;4184512;28;20087;-71
2023/07/31 09:33:07;;;;;;;;;;;;;;;17.75;87.87;100439.56;4199373;28;20098;-71
2023/07/31 09:35:15;;;;;;;;;;;;;;;17.76;87.76;100424.03;4198472;28;20271;-70
2023/07/31 09:37:17;;;;;;;;;;;;;;;17.75;87.74;100436.81;4199423;28;20504;-72
2023/07/31 09:39:23;;;;;;;;;;;;;;;17.76;87.63;100416.66;4202258;28;20043;-72
2023/07/31 09:41:26;;;;;;;;;;;;;;;17.76;87.59;100413.94;4200438;28;20020;-71
2023/07/31 09:43:28;;;;;;;;;;;;;;;17.75;87.60;100414.97;4198597;28;20027;-71
2023/07/31 09:45:31;;;;;;;;;;;;;;;17.74;87.61;100412.47;4198450;28;20018;-71
2023/07/31 09:47:33;;;;;;;;;;;;;;;17.73;87.32;100408.09;4200655;28;20011;-71
2023/07/31 09:49:35;;;;;;;;;;;;;;;17.74;87.45;100412.47;4198781;28;20023;-71
2023/07/31 09:51:39;;;;;;;;;;;;;;;17.76;87.11;100411.19;4200899;28;20095;-70
2023/07/31 09:53:41;;;;;;;;;;;;;;;17.79;86.96;100404.41;4183393;28;20015;-71
2023/07/31 09:55:44;;;;;;;;;;;;;;;17.82;86.66;100407.53;4200472;28;20027;-73
2023/07/31 09:57:46;;;;;;;;;;;;;;;17.84;86.71;100404.56;4202888;28;20010;-74
2023/07/31 09:59:52;;;;;;;;;;;;;;;17.88;86.79;100403.03;4202131;28;20007;-72
2023/07/31 10:01:55;;;;;;;;;;;;;;;17.90;86.51;100397.34;4202063;28;20022;-71
2023/07/31 10:04:04;;;;;;;;;;;;;;;17.91;86.47;100399.84;4183167;28;19979;-71
2023/07/31 10:06:06;;;;;;;;;;;;;;;17.92;86.65;100395.22;4182377;28;20022;-71
2023/07/31 10:08:11;;;;;;;;;;;;;;;17.93;86.89;100395.00;4200225;28;20019;-71
2023/07/31 10:10:13;;;;;;;;;;;;;;;17.95;87.01;100389.31;4201538;28;20007;-71
2023/07/31 10:12:19;;;;;;;;;;;;;;;17.98;86.86;100380.63;4200392;28;20473;-73
2023/07/31 10:14:21;;;;;;;;;;;;;;;18.01;86.68;100383.72;4201994;28;20031;-71
2023/07/31 10:16:24;;;;;;;;;;;;;;;18.05;86.65;100383.25;4202535;28;19974;-72
2023/07/31 10:18:29;;;;;;;;;;;;;;;18.08;86.86;100397.28;4202309;28;20445;-71
2023/07/31 10:20:31;;;;;;;;;;;;;;;18.09;87.08;100385.28;4168555;28;19972;-72
2023/07/31 10:22:36;;;;;;;;;;;;;;;18.10;87.57;100386.09;4202357;28;20536;-71
2023/07/31 10:24:40;;;;;;;;;;;;;;;18.11;87.51;100385.88;4201761;28;19925;-72
2023/07/31 10:26:42;;;;;;;;;;;;;;;18.11;87.96;100379.59;4202474;28;20019;-71
2023/07/31 10:28:46;;;;;;;;;;;;;;;18.12;88.01;100383.97;4184171;28;20440;-70
2023/07/31 10:30:48;;;;;;;;;;;;;;;18.13;87.96;100383.72;4202739;28;20359;-71
2023/07/31 10:32:51;;;;;;;;;;;;;;;18.15;87.86;100380.75;4201826;28;20019;-71
2023/07/31 10:34:53;;;;;;;;;;;;;;;18.15;88.03;100381.59;4202538;28;20459;-71